createdAt,value
2022-10-11T00:02:05.782Z,12.99
2022-10-11T00:04:32.688Z,12.90
2022-10-11T00:06:59.460Z,12.70
2022-10-11T00:09:26.208Z,12.65
2022-10-11T00:11:56.463Z,12.60
2022-10-11T00:14:24.790Z,12.66
2022-10-11T00:16:51.845Z,12.84
2022-10-11T00:19:18.958Z,12.73
2022-10-11T00:21:46.274Z,12.84
2022-10-11T00:24:16.903Z,12.74
2022-10-11T00:26:46.844Z,12.77
2022-10-11T00:29:14.348Z,12.74
2022-10-11T00:31:41.026Z,12.69
2022-10-11T00:34:08.834Z,12.81
2022-10-11T00:36:35.635Z,12.85
2022-10-11T00:39:02.532Z,12.73
2022-10-11T00:41:29.335Z,12.80
2022-10-11T00:44:29.300Z,12.78
2022-10-11T00:47:05.161Z,12.58
2022-10-11T00:49:50.352Z,12.61
2022-10-11T00:52:32.093Z,12.56
2022-10-11T00:55:03.781Z,12.55
2022-10-11T00:57:34.054Z,12.47
2022-10-11T01:00:01.342Z,12.48
2022-10-11T01:02:30.399Z,12.64
2022-10-11T01:05:17.820Z,12.74
2022-10-11T01:07:46.466Z,12.68
2022-10-11T01:10:13.790Z,12.83
2022-10-11T01:13:21.568Z,12.79
2022-10-11T01:16:01.589Z,13.01
2022-10-11T01:18:31.976Z,12.92
2022-10-11T01:21:23.305Z,12.86
2022-10-11T01:24:08.162Z,12.47
2022-10-11T01:27:14.309Z,12.77
2022-10-11T01:30:21.520Z,12.73
2022-10-11T01:32:57.402Z,12.71
2022-10-11T01:35:33.309Z,12.57
2022-10-11T01:38:07.830Z,12.48
2022-10-11T01:40:39.369Z,12.47
2022-10-11T01:43:06.789Z,12.44
2022-10-11T01:45:34.864Z,12.42
2022-10-11T01:48:12.745Z,12.58
2022-10-11T01:50:44.615Z,12.65
2022-10-11T01:53:48.931Z,12.70
2022-10-11T01:56:30.875Z,12.62
2022-10-11T01:59:12.928Z,12.60
2022-10-11T02:02:01.426Z,12.73
2022-10-11T02:04:41.673Z,12.65
2022-10-11T02:07:22.140Z,12.73
2022-10-11T02:09:59.057Z,12.79
2022-10-11T02:12:32.627Z,12.74
2022-10-11T02:15:03.093Z,12.69
2022-10-11T02:17:35.737Z,12.92
2022-10-11T02:20:09.037Z,13.03
2022-10-11T02:22:39.047Z,13.09
2022-10-11T02:25:11.206Z,12.95
2022-10-11T02:27:40.738Z,13.03
2022-10-11T02:30:09.265Z,12.98
2022-10-11T02:32:40.864Z,12.93
2022-10-11T02:35:08.637Z,12.60
2022-10-11T02:37:57.437Z,12.87
2022-10-11T02:40:38.431Z,12.74
2022-10-11T02:43:17.619Z,12.68
2022-10-11T02:45:49.936Z,12.80
2022-10-11T02:48:17.225Z,12.68
2022-10-11T02:50:44.265Z,12.92
2022-10-11T02:53:10.962Z,12.73
2022-10-11T02:55:37.711Z,12.97
2022-10-11T02:58:04.614Z,12.86
2022-10-11T03:00:31.764Z,12.69
2022-10-11T03:02:58.961Z,12.62
2022-10-11T03:05:27.340Z,12.65
2022-10-11T03:07:53.990Z,12.76
2022-10-11T03:10:20.682Z,12.76
2022-10-11T03:12:47.751Z,12.83
2022-10-11T03:15:14.439Z,12.81
2022-10-11T03:17:41.157Z,12.85
2022-10-11T03:20:08.259Z,12.81
2022-10-11T03:22:35.137Z,12.81
2022-10-11T03:25:04.268Z,12.45
2022-10-11T03:27:32.264Z,12.49
2022-10-11T03:29:59.000Z,12.25
2022-10-11T03:32:25.776Z,12.44
2022-10-11T03:34:52.585Z,12.36
2022-10-11T03:37:19.249Z,12.42
2022-10-11T03:39:46.137Z,12.39
2022-10-11T03:42:13.947Z,12.37
2022-10-11T03:44:42.267Z,12.39
2022-10-11T03:47:09.094Z,12.37
2022-10-11T03:49:39.880Z,12.45
2022-10-11T03:52:09.774Z,12.42
2022-10-11T03:54:36.530Z,12.41
2022-10-11T03:57:03.447Z,12.45
2022-10-11T03:59:30.376Z,12.35
2022-10-11T04:01:57.221Z,12.22
2022-10-11T04:04:23.996Z,12.27
2022-10-11T04:06:50.745Z,12.19
2022-10-11T04:09:17.565Z,12.12
2022-10-11T04:11:44.268Z,12.31
2022-10-11T04:14:10.996Z,12.35
2022-10-11T04:16:38.978Z,12.47
2022-10-11T04:19:05.823Z,12.47
2022-10-11T04:21:32.542Z,12.37
2022-10-11T04:23:59.338Z,12.33
2022-10-11T04:26:26.205Z,12.40
2022-10-11T04:28:53.065Z,12.26
2022-10-11T04:31:20.121Z,12.22
2022-10-11T04:33:46.965Z,12.22
2022-10-11T04:36:13.892Z,12.33
2022-10-11T04:38:40.661Z,12.11
2022-10-11T04:41:13.227Z,12.12
2022-10-11T04:43:40.378Z,12.19
2022-10-11T04:46:08.837Z,12.19
2022-10-11T04:48:36.422Z,12.11
2022-10-11T04:51:03.160Z,12.07
2022-10-11T04:53:30.099Z,12.21
2022-10-11T04:56:05.724Z,12.13
2022-10-11T04:58:34.360Z,12.34
2022-10-11T05:01:01.426Z,12.33
2022-10-11T05:03:28.426Z,12.49
2022-10-11T05:05:55.170Z,12.59
2022-10-11T05:08:25.118Z,12.69
2022-10-11T05:11:00.038Z,12.88
2022-10-11T05:13:28.349Z,12.79
2022-10-11T05:15:55.089Z,12.70
2022-10-11T05:18:22.575Z,12.96
2022-10-11T05:20:49.560Z,12.93
2022-10-11T05:23:16.276Z,12.97
2022-10-11T05:25:43.438Z,13.32
2022-10-11T05:28:10.212Z,13.43
2022-10-11T05:30:37.021Z,13.69
2022-10-11T05:33:04.202Z,13.91
2022-10-11T05:35:31.106Z,13.79
2022-10-11T05:37:57.776Z,13.79
2022-10-11T05:43:19.110Z,13.88
2022-10-11T05:45:46.644Z,13.78
2022-10-11T05:48:13.342Z,13.84
2022-10-11T05:50:40.364Z,13.90
2022-10-11T05:53:07.498Z,13.87
2022-10-11T05:55:39.207Z,13.86
2022-10-11T05:58:06.685Z,13.97
2022-10-11T06:00:36.971Z,14.02
2022-10-11T06:03:05.333Z,14.24
2022-10-11T06:05:32.474Z,14.12
2022-10-11T06:07:59.102Z,13.99
2022-10-11T06:10:26.067Z,14.26
2022-10-11T06:12:53.155Z,14.16
2022-10-11T06:15:19.936Z,14.28
2022-10-11T06:17:49.766Z,14.34
2022-10-11T06:20:16.822Z,14.43
2022-10-11T06:22:43.567Z,14.43
2022-10-11T06:25:10.705Z,14.55
2022-10-11T06:27:37.427Z,14.65
2022-10-11T06:30:05.070Z,14.78
2022-10-11T06:32:32.256Z,15.02
2022-10-11T06:34:59.096Z,15.13
2022-10-11T06:37:25.853Z,15.07
2022-10-11T06:40:12.233Z,15.29
2022-10-11T06:42:38.950Z,15.13
2022-10-11T06:45:06.308Z,15.29
2022-10-11T06:47:33.128Z,15.35
2022-10-11T06:49:59.914Z,15.39
2022-10-11T06:52:26.728Z,15.40
2022-10-11T06:54:53.449Z,15.59
2022-10-11T06:57:20.231Z,15.56
2022-10-11T06:59:47.013Z,15.65
2022-10-11T07:02:13.805Z,15.91
2022-10-11T07:04:40.647Z,15.84
2022-10-11T07:07:07.360Z,15.75
2022-10-11T07:09:35.007Z,15.80
2022-10-11T07:12:01.950Z,15.78
2022-10-11T07:14:28.814Z,15.91
2022-10-11T07:16:55.528Z,15.82
2022-10-11T07:19:22.230Z,15.96
2022-10-11T07:21:49.132Z,15.89
2022-10-11T07:24:16.167Z,16.10
2022-10-11T07:26:43.053Z,16.23
2022-10-11T07:29:11.041Z,16.33
2022-10-11T07:31:40.327Z,16.72
2022-10-11T07:34:07.243Z,16.67
2022-10-11T07:36:34.118Z,16.80
2022-10-11T07:39:01.010Z,16.72
2022-10-11T07:41:27.666Z,16.55
2022-10-11T07:43:55.153Z,16.65
2022-10-11T07:46:22.557Z,17.13
2022-10-11T07:48:50.444Z,17.31
2022-10-11T07:51:22.538Z,17.34
2022-10-11T07:53:54.382Z,17.61
2022-10-11T07:56:24.600Z,17.57
2022-10-11T07:58:56.089Z,17.52
2022-10-11T08:01:23.285Z,18.04
2022-10-11T08:03:50.855Z,18.08
2022-10-11T08:06:20.958Z,17.77
2022-10-11T08:08:48.007Z,17.86
2022-10-11T08:11:27.031Z,18.20
2022-10-11T08:13:54.415Z,18.61
2022-10-11T08:16:21.944Z,18.67
2022-10-11T08:18:48.849Z,18.25
2022-10-11T08:21:18.012Z,19.03
2022-10-11T08:23:44.905Z,19.16
2022-10-11T08:26:12.495Z,19.26
2022-10-11T08:28:39.270Z,18.95
2022-10-11T08:31:06.604Z,20.15
2022-10-11T08:33:33.431Z,19.90
2022-10-11T08:36:06.312Z,20.01
2022-10-11T08:38:33.937Z,20.22
2022-10-11T08:41:01.402Z,19.89
2022-10-11T08:43:40.075Z,19.61
2022-10-11T08:46:10.107Z,19.99
2022-10-11T08:48:45.164Z,19.99
2022-10-11T08:51:24.971Z,20.41
2022-10-11T08:53:54.616Z,20.17
2022-10-11T08:56:23.567Z,20.78
2022-10-11T08:59:13.568Z,21.20
2022-10-11T09:01:54.161Z,21.44
2022-10-11T09:04:20.977Z,21.20
2022-10-11T09:07:04.852Z,21.68
2022-10-11T09:09:41.184Z,22.10
2022-10-11T09:12:24.680Z,21.87
2022-10-11T09:15:11.475Z,21.59
2022-10-11T09:17:41.247Z,21.80
2022-10-11T09:20:32.108Z,21.47
2022-10-11T09:23:38.004Z,21.17
2022-10-11T09:26:13.740Z,21.52
2022-10-11T09:29:06.438Z,21.53
2022-10-11T09:31:33.931Z,21.45
2022-10-11T09:34:11.467Z,21.19
2022-10-11T09:36:47.774Z,20.59
2022-10-11T09:39:41.547Z,21.36
2022-10-11T09:42:11.758Z,21.42
2022-10-11T09:44:47.552Z,21.72
2022-10-11T09:47:24.855Z,22.38
2022-10-11T09:50:03.407Z,22.65
2022-10-11T09:52:30.497Z,22.94
2022-10-11T09:55:02.401Z,23.23
2022-10-11T09:57:36.620Z,23.59
2022-10-11T10:00:25.427Z,24.07
2022-10-11T10:02:57.929Z,24.12
2022-10-11T10:05:33.032Z,24.06
2022-10-11T10:08:22.979Z,24.12
2022-10-11T10:11:05.562Z,24.44
2022-10-11T10:13:43.797Z,24.13
2022-10-11T10:16:31.913Z,24.09
2022-10-11T10:19:07.608Z,23.08
2022-10-11T10:21:46.557Z,22.27
2022-10-11T10:24:40.047Z,21.82
2022-10-11T10:27:23.500Z,22.15
2022-10-11T10:30:09.266Z,22.16
2022-10-11T10:32:55.784Z,22.07
2022-10-11T10:35:27.109Z,22.73
2022-10-11T10:38:08.624Z,22.55
2022-10-11T10:40:58.983Z,21.66
2022-10-11T10:43:29.441Z,21.26
2022-10-11T10:46:14.927Z,21.59
2022-10-11T10:49:28.399Z,21.68
2022-10-11T10:51:43.056Z,21.26
2022-10-11T10:54:34.015Z,21.16
2022-10-11T10:57:14.887Z,21.12
2022-10-11T10:59:50.668Z,20.86
2022-10-11T11:02:41.469Z,21.14
2022-10-11T11:05:34.443Z,20.89
2022-10-11T11:08:18.300Z,20.78
2022-10-11T11:11:00.213Z,21.13
2022-10-11T11:13:54.342Z,20.46
2022-10-11T11:16:21.078Z,20.61
2022-10-11T11:19:24.074Z,20.97
2022-10-11T11:22:15.141Z,20.97
2022-10-11T11:25:00.312Z,20.87
2022-10-11T11:27:53.064Z,21.28
2022-10-11T11:30:38.290Z,21.76
2022-10-11T11:33:39.273Z,21.57
2022-10-11T11:36:13.136Z,21.91
2022-10-11T11:38:44.018Z,21.96
2022-10-11T11:41:18.751Z,21.23
2022-10-11T11:43:58.985Z,21.49
2022-10-11T11:46:44.229Z,21.15
2022-10-11T11:49:20.680Z,21.44
2022-10-11T11:51:48.314Z,21.09
2022-10-11T11:54:28.520Z,20.91
2022-10-11T11:57:24.792Z,20.94
2022-10-11T12:00:15.992Z,21.03
2022-10-11T12:03:13.602Z,20.60
2022-10-11T12:06:11.943Z,20.84
2022-10-11T12:08:41.123Z,20.87
2022-10-11T12:11:20.575Z,20.80
2022-10-11T12:13:50.821Z,21.05
2022-10-11T12:16:19.162Z,20.61
2022-10-11T12:19:06.216Z,20.56
2022-10-11T12:21:35.559Z,20.54
2022-10-11T12:24:11.369Z,20.55
2022-10-11T12:26:47.760Z,20.12
2022-10-11T12:29:17.476Z,20.47
2022-10-11T12:32:00.973Z,20.74
2022-10-11T12:37:33.475Z,21.02
2022-10-11T12:40:00.550Z,20.82
2022-10-11T12:42:36.562Z,20.57
2022-10-11T12:45:12.356Z,20.66
2022-10-11T12:47:51.205Z,20.39
2022-10-11T12:50:25.083Z,20.20
2022-10-11T12:53:18.440Z,20.50
2022-10-11T12:56:14.338Z,20.58
2022-10-11T12:58:45.120Z,20.20
2022-10-11T13:01:23.532Z,20.49
2022-10-11T13:03:53.205Z,20.30
2022-10-11T13:06:25.106Z,20.42
2022-10-11T13:09:26.033Z,20.42
2022-10-11T13:12:02.339Z,20.43
2022-10-11T13:14:34.914Z,20.63
2022-10-11T13:17:38.182Z,20.50
2022-10-11T13:20:18.010Z,20.46
2022-10-11T13:22:47.899Z,20.46
2022-10-11T13:25:19.145Z,20.42
2022-10-11T13:27:48.364Z,20.51
2022-10-11T13:30:31.663Z,20.28
2022-10-11T13:33:00.862Z,20.34
2022-10-11T13:35:36.611Z,20.29
2022-10-11T13:38:07.486Z,20.37
2022-10-11T13:40:35.810Z,20.07
2022-10-11T13:43:05.695Z,19.77
2022-10-11T13:45:35.230Z,19.90
2022-10-11T13:48:01.958Z,19.88
2022-10-11T13:50:35.563Z,19.98
2022-10-11T13:53:12.285Z,19.75
2022-10-11T13:55:41.955Z,19.94
2022-10-11T13:58:22.431Z,19.80
2022-10-11T14:00:58.529Z,19.69
2022-10-11T14:03:43.652Z,19.44
2022-10-11T14:06:10.831Z,19.80
2022-10-11T14:08:47.965Z,19.68
2022-10-11T14:11:16.005Z,19.67
2022-10-11T14:13:45.416Z,19.23
2022-10-11T14:16:16.504Z,19.23
2022-10-11T14:18:46.346Z,19.19
2022-10-11T14:21:47.765Z,19.11
2022-10-11T14:24:15.015Z,18.83
2022-10-11T14:26:45.770Z,18.83
2022-10-11T14:29:34.825Z,18.98
2022-10-11T14:32:08.220Z,19.05
2022-10-11T14:34:35.350Z,19.02
2022-10-11T14:37:02.476Z,18.66
2022-10-11T14:39:32.195Z,18.68
2022-10-11T14:41:59.526Z,18.76
2022-10-11T14:44:26.473Z,18.64
2022-10-11T14:46:54.729Z,18.64
2022-10-11T14:49:27.688Z,18.61
2022-10-11T14:51:57.279Z,18.52
2022-10-11T14:54:25.994Z,18.50
2022-10-11T14:56:55.487Z,18.54
2022-10-11T14:59:25.382Z,18.49
2022-10-11T15:01:54.278Z,18.48
2022-10-11T15:04:22.867Z,18.55
2022-10-11T15:06:50.489Z,18.46
2022-10-11T15:09:17.729Z,18.37
2022-10-11T15:11:44.756Z,18.29
2022-10-11T15:14:12.235Z,18.27
2022-10-11T15:16:40.304Z,18.18
2022-10-11T15:19:10.859Z,18.15
2022-10-11T15:21:37.539Z,18.09
2022-10-11T15:24:04.316Z,17.85
2022-10-11T15:26:31.328Z,17.93
2022-10-11T15:28:58.291Z,17.87
2022-10-11T15:31:25.086Z,17.79
2022-10-11T15:33:52.288Z,17.81
2022-10-11T15:36:21.632Z,17.78
2022-10-11T15:38:49.283Z,17.64
2022-10-11T15:41:19.039Z,17.65
2022-10-11T15:43:47.630Z,17.74
2022-10-11T15:46:17.748Z,17.68
2022-10-11T15:48:45.568Z,17.59
2022-10-11T15:51:12.375Z,17.60
2022-10-11T15:53:39.239Z,17.57
2022-10-11T15:56:09.470Z,17.51
2022-10-11T15:58:39.476Z,17.46
2022-10-11T16:01:16.419Z,17.35
2022-10-11T16:03:43.538Z,17.27
2022-10-11T16:06:11.516Z,17.21
2022-10-11T16:08:38.786Z,17.29
2022-10-11T16:11:07.299Z,17.17
2022-10-11T16:13:35.302Z,17.13
2022-10-11T16:16:07.596Z,17.09
2022-10-11T16:18:35.940Z,17.14
2022-10-11T16:21:10.973Z,17.15
2022-10-11T16:23:38.770Z,17.01
2022-10-11T16:26:08.960Z,16.97
2022-10-11T16:28:36.261Z,16.83
2022-10-11T16:31:18.235Z,16.66
2022-10-11T16:33:46.047Z,16.57
2022-10-11T16:36:34.482Z,16.69
2022-10-11T16:39:04.645Z,16.46
2022-10-11T16:41:31.352Z,16.51
2022-10-11T16:43:58.088Z,16.60
2022-10-11T16:46:24.903Z,16.44
2022-10-11T16:48:55.041Z,16.50
2022-10-11T16:51:22.031Z,16.37
2022-10-11T16:53:48.813Z,16.31
2022-10-11T16:56:15.512Z,16.28
2022-10-11T16:58:42.267Z,16.27
2022-10-11T17:01:11.354Z,16.33
2022-10-11T17:03:39.002Z,16.20
2022-10-11T17:06:06.660Z,16.25
2022-10-11T17:08:34.993Z,16.20
2022-10-11T17:11:02.934Z,16.23
2022-10-11T17:13:30.196Z,16.35
2022-10-11T17:15:57.011Z,16.18
2022-10-11T17:18:24.526Z,16.17
2022-10-11T17:20:59.866Z,16.09
2022-10-11T17:23:26.643Z,16.03
2022-10-11T17:26:01.533Z,15.83
2022-10-11T17:28:28.352Z,15.69
2022-10-11T17:30:57.046Z,15.86
2022-10-11T17:33:26.402Z,15.83
2022-10-11T17:35:54.397Z,15.55
2022-10-11T17:38:22.464Z,15.73
2022-10-11T17:40:59.108Z,15.73
2022-10-11T17:43:25.910Z,15.55
2022-10-11T17:46:00.859Z,15.69
2022-10-11T17:48:28.307Z,15.72
2022-10-11T17:50:55.254Z,15.48
2022-10-11T17:53:22.424Z,15.75
2022-10-11T17:55:54.272Z,15.67
2022-10-11T17:58:20.957Z,15.51
2022-10-11T18:00:47.726Z,15.40
2022-10-11T18:03:14.558Z,15.52
2022-10-11T18:05:41.808Z,15.51
2022-10-11T18:08:08.867Z,15.47
2022-10-11T18:10:38.577Z,15.49
2022-10-11T18:13:06.766Z,15.48
2022-10-11T18:15:34.251Z,15.39
2022-10-11T18:18:01.048Z,15.36
2022-10-11T18:20:27.725Z,15.22
2022-10-11T18:22:54.666Z,15.40
2022-10-11T18:25:21.389Z,15.41
2022-10-11T18:27:48.186Z,15.50
2022-10-11T18:30:14.967Z,15.42
2022-10-11T18:32:41.670Z,15.31
2022-10-11T18:35:08.739Z,15.25
2022-10-11T18:37:35.591Z,15.20
2022-10-11T18:40:02.581Z,15.13
2022-10-11T18:42:29.326Z,15.08
2022-10-11T18:44:57.053Z,15.15
2022-10-11T18:47:23.796Z,15.06
2022-10-11T18:49:50.426Z,15.01
2022-10-11T18:52:17.344Z,15.05
2022-10-11T18:54:44.059Z,15.05
2022-10-11T18:57:10.778Z,15.07
2022-10-11T18:59:37.485Z,15.04
2022-10-11T19:02:04.964Z,14.98
2022-10-11T19:04:34.289Z,14.95
2022-10-11T19:07:01.149Z,14.95
2022-10-11T19:09:28.906Z,15.08
2022-10-11T19:11:57.305Z,15.03
2022-10-11T19:14:26.968Z,15.05
2022-10-11T19:16:54.293Z,14.98
2022-10-11T19:19:26.895Z,15.14
2022-10-11T19:21:54.428Z,14.97
2022-10-11T19:24:23.924Z,15.12
2022-10-11T19:26:53.085Z,15.12
2022-10-11T19:29:22.353Z,15.07
2022-10-11T19:31:54.084Z,15.04
2022-10-11T19:34:21.887Z,15.05
2022-10-11T19:36:50.910Z,15.21
2022-10-11T19:39:18.557Z,15.06
2022-10-11T19:41:45.299Z,15.20
2022-10-11T19:44:13.276Z,15.13
2022-10-11T19:46:55.917Z,15.03
2022-10-11T19:49:25.241Z,15.15
2022-10-11T19:51:53.189Z,15.08
2022-10-11T19:54:19.985Z,15.10
2022-10-11T19:56:46.994Z,14.97
2022-10-11T19:59:14.576Z,15.00
2022-10-11T20:01:42.008Z,14.97
2022-10-11T20:04:27.392Z,14.95
2022-10-11T20:06:54.479Z,14.94
2022-10-11T20:09:29.886Z,15.09
2022-10-11T20:11:57.527Z,15.13
2022-10-11T20:14:24.870Z,15.03
2022-10-11T20:16:51.751Z,15.11
2022-10-11T20:19:18.817Z,15.19
2022-10-11T20:21:45.602Z,15.44
2022-10-11T20:24:12.874Z,15.64
2022-10-11T20:26:39.757Z,15.61
2022-10-11T20:29:07.262Z,15.68
2022-10-11T20:31:35.164Z,15.61
2022-10-11T20:34:05.154Z,15.52
2022-10-11T20:36:33.320Z,15.59
2022-10-11T20:39:00.477Z,15.30
2022-10-11T20:41:31.343Z,15.29
2022-10-11T20:43:58.559Z,15.38
2022-10-11T20:46:34.620Z,15.23
2022-10-11T20:49:04.325Z,15.08
2022-10-11T20:51:33.538Z,15.09
2022-10-11T20:54:01.094Z,15.13
2022-10-11T20:56:28.614Z,15.20
2022-10-11T20:58:56.502Z,15.29
2022-10-11T21:01:28.525Z,15.42
2022-10-11T21:03:58.200Z,15.14
2022-10-11T21:06:26.038Z,15.18
2022-10-11T21:08:54.894Z,15.04
2022-10-11T21:11:21.583Z,14.98
2022-10-11T21:13:48.238Z,14.97
2022-10-11T21:16:16.478Z,15.01
2022-10-11T21:18:43.198Z,14.87
2022-10-11T21:21:14.476Z,14.85
2022-10-11T21:23:41.781Z,14.76
2022-10-11T21:26:11.403Z,14.95
2022-10-11T21:28:39.281Z,14.96
2022-10-11T21:31:11.446Z,14.81
2022-10-11T21:33:39.244Z,14.87
2022-10-11T21:36:07.855Z,15.01
2022-10-11T21:38:34.953Z,15.21
2022-10-11T21:41:06.252Z,15.10
2022-10-11T21:43:35.200Z,15.04
2022-10-11T21:46:14.064Z,15.01
2022-10-11T21:48:40.914Z,14.96
2022-10-11T21:53:38.890Z,14.94
2022-10-11T21:56:05.691Z,14.81
2022-10-11T21:58:32.376Z,14.91
2022-10-11T22:00:59.693Z,14.94
2022-10-11T22:03:26.695Z,14.74
2022-10-11T22:05:53.363Z,14.84
2022-10-11T22:08:20.093Z,14.90
2022-10-11T22:10:54.148Z,14.92
2022-10-11T22:13:20.985Z,14.90
2022-10-11T22:15:47.700Z,14.94
2022-10-11T22:18:14.528Z,14.97
2022-10-11T22:20:41.239Z,15.19
2022-10-11T22:23:08.276Z,15.24
2022-10-11T22:25:36.517Z,15.25
2022-10-11T22:28:04.186Z,15.31
2022-10-11T22:30:30.929Z,15.21
2022-10-11T22:32:57.813Z,15.28
2022-10-11T22:35:24.873Z,15.48
2022-10-11T22:37:51.997Z,15.15
2022-10-11T22:40:19.777Z,15.29
2022-10-11T22:42:46.635Z,15.10
2022-10-11T22:45:13.302Z,14.86
2022-10-11T22:47:40.088Z,14.65
2022-10-11T22:50:07.066Z,14.49
2022-10-11T22:52:33.777Z,14.45
2022-10-11T22:55:00.482Z,14.38
2022-10-11T22:57:27.113Z,14.42
2022-10-11T22:59:53.769Z,14.40
2022-10-11T23:02:20.450Z,14.29
2022-10-11T23:04:47.163Z,14.47
2022-10-11T23:07:15.022Z,14.53
2022-10-11T23:09:41.742Z,14.66
2022-10-11T23:12:08.407Z,14.63
2022-10-11T23:14:35.041Z,14.70
2022-10-11T23:17:01.772Z,14.69
2022-10-11T23:19:28.397Z,14.65
2022-10-11T23:21:55.083Z,14.68
2022-10-11T23:24:21.832Z,14.77
2022-10-11T23:26:48.517Z,14.83
2022-10-11T23:29:15.359Z,14.73
2022-10-11T23:31:42.226Z,14.71
2022-10-11T23:34:08.897Z,14.62
2022-10-11T23:36:35.608Z,14.65
2022-10-11T23:39:02.373Z,14.53
2022-10-11T23:41:29.833Z,14.40
2022-10-11T23:43:57.962Z,14.41
2022-10-11T23:46:25.287Z,14.49
2022-10-11T23:48:51.956Z,14.39
2022-10-11T23:51:18.657Z,14.47
2022-10-11T23:53:45.348Z,14.52
2022-10-11T23:56:12.332Z,14.54
2022-10-11T23:58:39.544Z,14.54
